Time;durP1;ratioP1;P1;durP2;ratioP2;P2;SDS_P1;SDS_P2;PMS_P1;PMS_P2;Temp;Humidity;BMP_temperature;BMP_pressure;BME280_temperature;BME280_humidity;BME280_pressure;Samples;Min_cycle;Max_cycle;Signal;HPM_P1;HPM_P2
2023/07/27 00:00:08;;;;;;;4.87;3.60;;;16.80;1.00;;;;;;4988647;28;20454;-75
2023/07/27 00:02:35;;;;;;;7.03;3.67;;;16.70;1.00;;;;;;4988966;28;20731;-74
2023/07/27 00:05:02;;;;;;;6.47;3.20;;;16.60;1.00;;;;;;4989355;28;20430;-76
2023/07/27 00:07:27;;;;;;;4.43;3.90;;;16.60;1.00;;;;;;4989572;28;20480;-74
2023/07/27 00:09:53;;;;;;;7.40;3.53;;;16.60;1.00;;;;;;4991618;28;20426;-75
2023/07/27 00:12:18;;;;;;;5.20;3.43;;;16.60;1.00;;;;;;4991618;28;20171;-74
2023/07/27 00:14:44;;;;;;;6.73;3.50;;;16.50;1.00;;;;;;4994338;28;20486;-73
2023/07/27 00:17:09;;;;;;;5.00;3.70;;;16.60;1.00;;;;;;4989686;28;20191;-74
2023/07/27 00:19:35;;;;;;;9.10;3.67;;;16.60;1.00;;;;;;4990998;28;20573;-74
2023/07/27 00:22:00;;;;;;;5.50;3.53;;;16.60;1.00;;;;;;4996281;28;20646;-75
2023/07/27 00:24:26;;;;;;;5.13;3.70;;;16.60;1.00;;;;;;4990286;28;20171;-74
2023/07/27 00:26:51;;;;;;;5.90;3.97;;;16.60;1.00;;;;;;4992070;28;20202;-75
2023/07/27 00:29:17;;;;;;;4.67;3.40;;;16.60;1.00;;;;;;4991266;28;20191;-75
2023/07/27 00:31:42;;;;;;;5.10;3.33;;;16.60;1.00;;;;;;4988834;28;20666;-74
2023/07/27 00:34:08;;;;;;;4.33;3.30;;;16.60;1.00;;;;;;4990736;28;20171;-74
2023/07/27 00:36:33;;;;;;;4.67;3.40;;;16.50;1.00;;;;;;4991389;28;20744;-74
2023/07/27 00:38:59;;;;;;;4.27;3.60;;;16.60;1.00;;;;;;4990578;28;20238;-74
2023/07/27 00:41:25;;;;;;;4.63;3.60;;;16.60;1.00;;;;;;4991531;28;20654;-75
2023/07/27 00:43:50;;;;;;;6.57;3.70;;;16.60;1.00;;;;;;4990659;28;20183;-74
2023/07/27 00:46:16;;;;;;;3.40;3.07;;;16.60;1.00;;;;;;4991234;28;20199;-74
2023/07/27 00:48:41;;;;;;;5.60;3.40;;;16.50;1.00;;;;;;4990880;28;20195;-75
2023/07/27 00:51:08;;;;;;;5.70;3.40;;;16.50;1.00;;;;;;4990216;28;20730;-74
2023/07/27 00:53:34;;;;;;;10.00;3.80;;;16.40;1.00;;;;;;4990594;28;20202;-75
2023/07/27 00:56:01;;;;;;;7.60;4.07;;;16.40;1.00;;;;;;4987203;28;20438;-75
2023/07/27 00:58:26;;;;;;;4.50;3.43;;;16.40;1.00;;;;;;4990451;28;20449;-75
2023/07/27 01:00:52;;;;;;;5.47;3.20;;;16.40;1.00;;;;;;4988823;28;20462;-75
2023/07/27 01:03:18;;;;;;;10.57;3.83;;;16.80;1.00;;;;;;4995965;28;20171;-74
2023/07/27 01:05:44;;;;;;;5.50;3.90;;;16.40;1.00;;;;;;4989230;28;20557;-73
2023/07/27 01:08:09;;;;;;;5.97;3.17;;;16.30;1.00;;;;;;4990398;28;20415;-75
2023/07/27 01:10:47;;;;;;;5.13;3.60;;;14.40;1.00;;;;;;4988311;28;20262;-73
2023/07/27 01:13:33;;;;;;;5.63;3.33;;;16.30;1.00;;;;;;4995635;28;20253;-72
2023/07/27 01:16:09;;;;;;;3.80;2.93;;;16.20;1.00;;;;;;4988252;28;20517;-73
2023/07/27 01:19:06;;;;;;;5.77;3.70;;;16.20;1.00;;;;;;4995036;28;20433;-74
2023/07/27 01:21:36;;;;;;;5.50;3.30;;;16.20;1.00;;;;;;4988536;28;20434;-72
2023/07/27 01:24:33;;;;;;;4.43;3.33;;;16.10;1.00;;;;;;4989888;28;20414;-72
2023/07/27 01:27:15;;;;;;;3.60;3.10;;;16.10;1.00;;;;;;4989929;28;20437;-77
2023/07/27 01:29:52;;;;;;;4.73;3.40;;;16.10;1.00;;;;;;4989997;28;20457;-74
2023/07/27 01:32:20;;;;;;;5.17;3.47;;;16.10;1.00;;;;;;4984839;28;20425;-73
2023/07/27 01:34:54;;;;;;;4.40;3.23;;;16.10;1.00;;;;;;4989673;28;20415;-73
2023/07/27 01:37:22;;;;;;;3.53;2.90;;;16.10;1.00;;;;;;4990630;28;20449;-73
2023/07/27 01:39:51;;;;;;;5.40;3.43;;;16.10;1.00;;;;;;4990148;28;20465;-73
2023/07/27 01:42:17;;;;;;;4.60;3.27;;;16.10;1.00;;;;;;4989969;28;20454;-75
2023/07/27 01:44:44;;;;;;;7.37;3.73;;;16.10;1.00;;;;;;4990350;28;20426;-76
2023/07/27 01:47:11;;;;;;;5.43;3.53;;;16.20;1.00;;;;;;4988419;28;20438;-73
2023/07/27 01:49:38;;;;;;;5.80;3.27;;;16.20;1.00;;;;;;4990792;28;20458;-73
2023/07/27 01:52:05;;;;;;;4.27;3.20;;;16.20;1.00;;;;;;4990147;28;20512;-73
2023/07/27 01:54:32;;;;;;;4.40;3.60;;;16.20;1.00;;;;;;4990721;28;20919;-73
2023/07/27 01:56:58;;;;;;;5.00;3.30;;;16.20;1.00;;;;;;4986765;28;21121;-73
2023/07/27 01:59:24;;;;;;;4.47;3.70;;;16.20;1.00;;;;;;4988755;28;20552;-73
2023/07/27 02:01:50;;;;;;;4.00;3.37;;;16.20;1.00;;;;;;4989757;28;20190;-73
2023/07/27 02:04:15;;;;;;;5.10;3.33;;;16.20;1.00;;;;;;4989606;28;20815;-74
2023/07/27 02:06:41;;;;;;;4.80;3.53;;;16.20;1.00;;;;;;4990026;28;20265;-73
2023/07/27 02:09:07;;;;;;;3.73;3.30;;;16.20;1.00;;;;;;4991176;28;20179;-73
2023/07/27 02:11:33;;;;;;;5.80;3.53;;;16.20;1.00;;;;;;4990875;28;20202;-74
2023/07/27 02:14:33;;;;;;;4.30;3.60;;;16.20;1.00;;;;;;4988446;28;20175;-75
2023/07/27 02:17:10;;;;;;;7.40;3.20;;;16.20;1.00;;;;;;4973748;28;20501;-75
2023/07/27 02:19:39;;;;;;;4.47;3.40;;;16.20;1.00;;;;;;4989420;28;20472;-73
2023/07/27 02:22:08;;;;;;;4.07;3.20;;;16.10;1.00;;;;;;4988772;28;20440;-75
2023/07/27 02:24:34;;;;;;;4.20;3.47;;;16.10;1.00;;;;;;4988145;28;20462;-73
2023/07/27 02:27:00;;;;;;;5.00;3.27;;;16.10;1.00;;;;;;4989384;28;20478;-72
2023/07/27 02:29:25;;;;;;;14.33;4.00;;;16.10;1.00;;;;;;4998022;28;20230;-76
2023/07/27 02:31:50;;;;;;;7.40;3.30;;;16.10;1.00;;;;;;4990200;28;20778;-73
2023/07/27 02:34:16;;;;;;;3.80;2.90;;;16.10;1.00;;;;;;4989781;28;20201;-73
2023/07/27 02:36:41;;;;;;;4.00;3.23;;;16.10;1.00;;;;;;4990006;28;20195;-75
2023/07/27 02:39:07;;;;;;;8.23;3.50;;;16.10;1.00;;;;;;4988142;28;20179;-73
2023/07/27 02:41:33;;;;;;;5.20;3.20;;;14.90;1.00;;;;;;4996086;28;20179;-73
2023/07/27 02:43:58;;;;;;;5.67;3.30;;;16.10;1.00;;;;;;4993615;28;20545;-73
2023/07/27 02:46:24;;;;;;;5.13;3.07;;;16.10;1.00;;;;;;4993387;28;20764;-73
2023/07/27 02:48:49;;;;;;;3.60;3.03;;;16.10;1.00;;;;;;4993792;28;20179;-73
2023/07/27 02:51:14;;;;;;;5.17;2.83;;;16.10;1.00;;;;;;4992152;28;20215;-72
2023/07/27 02:53:40;;;;;;;3.67;3.23;;;16.10;1.00;;;;;;4993055;28;20262;-73
2023/07/27 02:56:06;;;;;;;6.80;3.17;;;16.10;1.00;;;;;;4992924;28;20264;-74
2023/07/27 02:58:31;;;;;;;3.23;2.93;;;16.10;1.00;;;;;;4993407;28;20292;-73
2023/07/27 03:00:59;;;;;;;6.57;3.20;;;16.20;1.00;;;;;;4993942;28;20249;-74
2023/07/27 03:03:25;;;;;;;5.10;3.33;;;16.20;1.00;;;;;;4992848;28;20183;-74
2023/07/27 03:05:57;;;;;;;4.20;3.43;;;16.20;1.00;;;;;;4992922;28;20411;-74
2023/07/27 03:08:23;;;;;;;4.70;3.03;;;16.20;1.00;;;;;;4992987;28;20399;-77
2023/07/27 03:10:49;;;;;;;6.17;3.57;;;16.30;1.00;;;;;;4992426;28;20437;-74
2023/07/27 03:13:15;;;;;;;5.23;3.27;;;16.30;1.00;;;;;;4992213;28;20217;-73
2023/07/27 03:15:41;;;;;;;8.50;3.67;;;17.10;1.00;;;;;;4993027;28;20426;-73
2023/07/27 03:18:07;;;;;;;4.00;3.10;;;16.30;1.00;;;;;;4995104;28;20202;-75
2023/07/27 03:20:40;;;;;;;7.80;3.40;;;16.30;1.00;;;;;;4993142;28;20306;-75
2023/07/27 03:23:06;;;;;;;5.17;3.20;;;16.30;1.00;;;;;;4992332;28;20499;-73
2023/07/27 03:25:33;;;;;;;4.30;3.27;;;16.30;1.00;;;;;;4992901;28;20497;-73
2023/07/27 03:27:59;;;;;;;3.90;3.13;;;16.30;1.00;;;;;;4992599;28;20442;-72
2023/07/27 03:30:24;;;;;;;4.50;3.20;;;16.30;1.00;;;;;;4993639;28;20441;-73
2023/07/27 03:32:50;;;;;;;4.70;3.00;;;16.30;1.00;;;;;;4995099;28;20435;-75
2023/07/27 03:35:15;;;;;;;5.33;3.30;;;16.30;1.00;;;;;;4991324;28;20186;-75
2023/07/27 03:37:41;;;;;;;3.37;2.93;;;16.40;1.00;;;;;;4992232;28;20740;-74
2023/07/27 03:40:07;;;;;;;8.63;3.73;;;16.30;1.00;;;;;;4991418;28;20219;-73
2023/07/27 03:42:32;;;;;;;9.70;3.70;;;16.40;1.00;;;;;;4992239;28;20614;-76
2023/07/27 03:44:58;;;;;;;4.90;3.00;;;16.40;1.00;;;;;;4992712;28;20509;-73
2023/07/27 03:47:23;;;;;;;9.27;3.27;;;16.30;1.00;;;;;;4991938;28;20252;-73
2023/07/27 03:49:49;;;;;;;4.90;3.67;;;16.50;1.00;;;;;;4991111;28;20233;-74
2023/07/27 03:52:14;;;;;;;7.30;3.30;;;16.50;1.00;;;;;;4992088;28;20191;-73
2023/07/27 03:54:40;;;;;;;4.20;2.97;;;16.50;1.00;;;;;;4990641;28;20179;-75
2023/07/27 03:57:05;;;;;;;3.50;3.20;;;16.50;1.00;;;;;;4991958;28;20210;-75
2023/07/27 03:59:31;;;;;;;3.80;3.20;;;16.50;1.00;;;;;;4991748;28;20693;-73
2023/07/27 04:01:56;;;;;;;3.43;2.83;;;16.50;1.00;;;;;;4992359;28;20250;-73
2023/07/27 04:04:22;;;;;;;7.70;3.50;;;16.40;1.00;;;;;;4991944;28;20211;-73
2023/07/27 04:06:48;;;;;;;5.17;3.00;;;16.40;1.00;;;;;;4988536;28;20230;-72
2023/07/27 04:09:14;;;;;;;4.30;3.40;;;16.50;1.00;;;;;;4993586;28;20175;-73
2023/07/27 04:11:39;;;;;;;4.80;3.37;;;16.50;1.00;;;;;;4991960;28;20485;-72
2023/07/27 04:14:05;;;;;;;5.70;3.80;;;16.50;1.00;;;;;;4991786;28;20207;-73
2023/07/27 04:16:31;;;;;;;4.20;3.37;;;16.50;1.00;;;;;;4989703;28;20739;-74
2023/07/27 04:18:56;;;;;;;3.97;3.20;;;16.50;1.00;;;;;;4989060;28;20170;-73
2023/07/27 04:21:22;;;;;;;3.93;3.53;;;16.50;1.00;;;;;;4990154;28;20203;-73
2023/07/27 04:23:48;;;;;;;6.33;3.30;;;16.50;1.00;;;;;;4991457;28;20175;-72
2023/07/27 04:26:13;;;;;;;4.17;3.50;;;16.50;1.00;;;;;;4988236;28;20232;-73
2023/07/27 04:28:39;;;;;;;7.03;3.17;;;16.50;1.00;;;;;;4989499;28;20629;-72
2023/07/27 04:31:04;;;;;;;4.73;3.23;;;16.50;1.00;;;;;;4988915;28;20198;-76
2023/07/27 04:33:30;;;;;;;4.73;3.00;;;16.40;1.00;;;;;;4989743;28;20179;-73
2023/07/27 04:35:58;;;;;;;9.23;3.10;;;16.40;1.00;;;;;;4989768;28;20202;-73
2023/07/27 04:38:24;;;;;;;6.30;3.67;;;16.40;1.00;;;;;;4990653;28;20175;-72
2023/07/27 04:40:51;;;;;;;4.50;3.27;;;16.40;1.00;;;;;;4994990;28;20462;-72
2023/07/27 04:43:16;;;;;;;4.83;2.90;;;16.40;1.00;;;;;;4990828;28;20636;-73
2023/07/27 04:45:42;;;;;;;4.33;3.93;;;16.50;1.00;;;;;;4991331;28;20414;-73
2023/07/27 04:48:08;;;;;;;5.33;3.20;;;16.60;1.00;;;;;;4990807;28;20245;-73
2023/07/27 04:50:34;;;;;;;4.73;3.77;;;16.70;1.00;;;;;;4990571;28;20202;-73
2023/07/27 04:52:59;;;;;;;6.00;3.67;;;16.70;1.00;;;;;;4993499;28;20210;-73
2023/07/27 04:55:24;;;;;;;4.53;3.30;;;16.80;1.00;;;;;;4990855;28;20450;-73
2023/07/27 04:57:50;;;;;;;5.80;3.40;;;16.80;1.00;;;;;;4990560;28;20195;-74
2023/07/27 05:00:16;;;;;;;4.37;3.20;;;16.70;1.00;;;;;;4990906;28;20207;-74
2023/07/27 05:02:41;;;;;;;5.27;3.60;;;16.70;1.00;;;;;;4991642;28;20585;-74
2023/07/27 05:05:07;;;;;;;7.60;3.60;;;16.80;1.00;;;;;;4990348;28;20183;-73
2023/07/27 05:07:33;;;;;;;4.90;3.73;;;16.80;1.00;;;;;;4989032;28;20215;-73
2023/07/27 05:09:58;;;;;;;4.73;3.60;;;16.80;1.00;;;;;;4991345;28;20207;-73
2023/07/27 05:12:23;;;;;;;6.00;3.70;;;16.80;1.00;;;;;;4990288;28;20657;-73
2023/07/27 05:14:50;;;;;;;9.03;3.90;;;17.00;1.00;;;;;;4990990;28;20175;-73
2023/07/27 05:17:16;;;;;;;11.33;4.40;;;17.10;1.00;;;;;;4988820;28;20194;-73
2023/07/27 05:19:41;;;;;;;5.57;3.83;;;17.20;1.00;;;;;;4990519;28;20460;-73
2023/07/27 05:22:07;;;;;;;5.97;3.70;;;17.20;1.00;;;;;;4990617;28;20177;-74
2023/07/27 05:24:32;;;;;;;8.80;4.37;;;17.30;1.00;;;;;;4990477;28;20177;-73
2023/07/27 05:26:58;;;;;;;5.10;4.17;;;17.30;1.00;;;;;;4990846;28;20210;-73
2023/07/27 05:29:23;;;;;;;4.40;3.80;;;17.40;1.00;;;;;;4999447;28;20261;-73
2023/07/27 05:31:49;;;;;;;14.83;3.90;;;17.40;1.00;;;;;;4990325;28;20262;-73
2023/07/27 05:34:14;;;;;;;5.47;4.10;;;17.40;1.00;;;;;;4988841;28;20542;-72
2023/07/27 05:36:40;;;;;;;5.63;4.00;;;17.50;1.00;;;;;;4988438;28;20207;-73
2023/07/27 05:39:05;;;;;;;5.53;4.00;;;17.60;1.00;;;;;;4990234;28;20210;-73
2023/07/27 05:41:31;;;;;;;5.23;3.73;;;17.50;1.00;;;;;;4988803;28;20186;-74
2023/07/27 05:43:57;;;;;;;6.20;4.27;;;17.50;1.00;;;;;;4990560;28;20206;-73
2023/07/27 05:46:22;;;;;;;5.23;3.83;;;17.50;1.00;;;;;;4989550;28;20547;-74
2023/07/27 05:48:48;;;;;;;4.93;4.07;;;17.60;1.00;;;;;;4989962;28;20232;-74
2023/07/27 05:51:13;;;;;;;8.03;4.60;;;17.70;1.00;;;;;;4990469;28;20176;-73
2023/07/27 05:53:39;;;;;;;7.13;4.13;;;17.90;1.00;;;;;;4989884;28;20230;-73
2023/07/27 05:56:04;;;;;;;7.17;4.37;;;18.10;1.00;;;;;;4989197;28;20258;-76
2023/07/27 05:58:30;;;;;;;6.13;4.03;;;18.20;1.00;;;;;;4989611;28;20187;-73
2023/07/27 06:01:03;;;;;;;5.37;4.03;;;18.30;1.00;;;;;;4990105;28;20199;-73
2023/07/27 06:03:29;;;;;;;5.50;4.07;;;18.20;1.00;;;;;;4989564;28;20207;-75
2023/07/27 06:05:55;;;;;;;7.07;4.20;;;18.20;1.00;;;;;;4989100;28;20496;-72
2023/07/27 06:08:21;;;;;;;5.33;3.97;;;18.20;1.00;;;;;;4989157;28;20510;-72
2023/07/27 06:10:46;;;;;;;6.50;4.20;;;18.40;1.00;;;;;;4988097;28;20835;-71
2023/07/27 06:13:12;;;;;;;7.33;4.50;;;18.50;1.00;;;;;;4986830;28;21031;-71
2023/07/27 06:15:38;;;;;;;6.50;4.40;;;18.50;1.00;;;;;;4987592;28;20190;-72
2023/07/27 06:18:04;;;;;;;9.33;4.40;;;18.40;1.00;;;;;;4992537;28;20257;-71
2023/07/27 06:20:29;;;;;;;10.03;4.63;;;18.40;1.00;;;;;;4993267;28;20207;-71
2023/07/27 06:22:55;;;;;;;5.63;4.10;;;18.40;1.00;;;;;;4991849;28;20781;-71
2023/07/27 06:25:20;;;;;;;8.23;4.30;;;18.60;1.00;;;;;;4992114;28;20171;-75
2023/07/27 06:27:46;;;;;;;5.20;3.90;;;18.70;1.00;;;;;;4992601;28;20457;-71
2023/07/27 06:30:13;;;;;;;5.67;4.00;;;18.70;1.00;;;;;;4993590;28;20221;-73
2023/07/27 06:32:38;;;;;;;5.27;4.10;;;18.80;1.00;;;;;;4991929;28;20279;-72
2023/07/27 06:35:04;;;;;;;8.07;4.53;;;18.80;1.00;;;;;;4993367;28;20517;-71
2023/07/27 06:37:30;;;;;;;5.07;3.73;;;18.90;1.00;;;;;;4990954;28;20202;-71
2023/07/27 06:39:56;;;;;;;5.23;3.70;;;19.00;1.00;;;;;;4971933;28;20993;-70
2023/07/27 06:42:21;;;;;;;5.30;3.60;;;19.10;1.00;;;;;;4992980;28;20421;-70
2023/07/27 06:44:47;;;;;;;6.87;4.47;;;21.50;1.00;;;;;;4989533;28;20190;-74
2023/07/27 06:47:12;;;;;;;7.60;4.17;;;19.10;1.00;;;;;;4989195;28;20275;-70
2023/07/27 06:49:37;;;;;;;6.20;3.70;;;19.10;1.00;;;;;;4992018;28;20691;-72
2023/07/27 06:52:03;;;;;;;7.40;3.97;;;19.20;1.00;;;;;;4992951;28;20187;-75
2023/07/27 06:54:29;;;;;;;13.17;4.00;;;19.10;1.00;;;;;;4986939;28;20230;-71
2023/07/27 06:56:54;;;;;;;4.80;3.83;;;19.20;1.00;;;;;;4994802;28;20191;-69
2023/07/27 06:59:20;;;;;;;8.50;4.50;;;18.90;1.00;;;;;;4987427;28;20752;-73
2023/07/27 07:01:46;;;;;;;5.60;3.87;;;18.90;1.00;;;;;;4989568;28;20190;-75
2023/07/27 07:04:11;;;;;;;6.07;4.20;;;18.90;1.00;;;;;;4990578;28;20171;-72
2023/07/27 07:06:37;;;;;;;7.10;4.40;;;18.70;1.00;;;;;;4985506;28;20269;-72
2023/07/27 07:09:02;;;;;;;8.80;4.17;;;18.50;1.00;;;;;;4993440;28;20274;-72
2023/07/27 07:11:28;;;;;;;6.00;4.30;;;18.50;1.00;;;;;;4991964;28;20214;-71
2023/07/27 07:13:53;;;;;;;5.10;4.00;;;18.40;1.00;;;;;;4992565;28;20230;-72
2023/07/27 07:16:19;;;;;;;7.60;4.60;;;18.50;1.00;;;;;;4991374;28;20555;-72
2023/07/27 07:18:44;;;;;;;6.17;4.83;;;18.40;1.00;;;;;;4990663;28;20207;-71
2023/07/27 07:21:10;;;;;;;8.00;4.50;;;18.40;1.00;;;;;;4989144;28;20484;-68
2023/07/27 07:23:35;;;;;;;9.03;4.60;;;18.30;1.00;;;;;;4991553;28;20179;-70
2023/07/27 07:26:01;;;;;;;8.00;4.80;;;18.00;1.00;;;;;;4993007;28;20179;-71
2023/07/27 07:28:27;;;;;;;4.90;4.10;;;18.00;1.00;;;;;;4991002;28;20218;-74
2023/07/27 07:30:52;;;;;;;8.37;4.43;;;17.80;1.00;;;;;;4992995;28;20190;-71
2023/07/27 07:33:18;;;;;;;8.53;4.90;;;17.60;1.00;;;;;;4992505;28;20222;-70
2023/07/27 07:35:43;;;;;;;10.03;4.33;;;17.60;1.00;;;;;;4992111;28;20221;-74
2023/07/27 07:38:09;;;;;;;8.10;4.60;;;17.50;1.00;;;;;;4992491;28;20195;-70
2023/07/27 07:40:34;;;;;;;8.40;4.03;;;17.40;1.00;;;;;;4996802;28;20814;-71
2023/07/27 07:43:00;;;;;;;8.80;4.37;;;17.30;1.00;;;;;;4991775;28;20211;-70
2023/07/27 07:45:25;;;;;;;5.83;4.70;;;17.40;1.00;;;;;;4990505;28;20184;-70
2023/07/27 07:47:51;;;;;;;7.27;5.00;;;17.50;1.00;;;;;;4991267;28;20203;-70
2023/07/27 07:50:17;;;;;;;9.30;4.70;;;17.70;1.00;;;;;;4992177;28;20233;-70
2023/07/27 07:52:42;;;;;;;6.37;4.50;;;17.80;1.00;;;;;;4989892;28;20191;-70
2023/07/27 07:55:08;;;;;;;6.93;4.70;;;17.80;1.00;;;;;;4990270;28;20265;-69
2023/07/27 07:57:34;;;;;;;12.97;5.07;;;17.90;1.00;;;;;;4989529;28;20230;-70
2023/07/27 07:59:59;;;;;;;5.60;4.07;;;17.80;1.00;;;;;;4990517;28;20889;-72
2023/07/27 08:02:25;;;;;;;5.80;4.10;;;17.80;1.00;;;;;;4991157;28;20184;-73
2023/07/27 08:04:50;;;;;;;5.73;4.83;;;17.90;1.00;;;;;;4989938;28;20179;-73
2023/07/27 08:07:16;;;;;;;9.23;4.93;;;17.90;1.00;;;;;;4988209;28;20736;-71
2023/07/27 08:09:41;;;;;;;6.50;4.73;;;18.20;1.00;;;;;;4986482;28;20183;-72
2023/07/27 08:12:07;;;;;;;5.30;4.80;;;18.00;1.00;;;;;;4992418;28;20677;-73
2023/07/27 08:14:32;;;;;;;8.63;4.73;;;18.10;1.00;;;;;;4990443;28;20548;-74
2023/07/27 08:16:58;;;;;;;5.80;5.00;;;18.10;1.00;;;;;;4987103;28;20301;-71
2023/07/27 08:19:24;;;;;;;9.53;5.23;;;18.10;1.00;;;;;;4990637;28;20700;-72
2023/07/27 08:21:49;;;;;;;7.87;5.60;;;18.00;1.00;;;;;;4995910;28;20190;-73
2023/07/27 08:24:15;;;;;;;12.10;5.60;;;18.10;1.00;;;;;;4991725;28;20207;-71
2023/07/27 08:26:40;;;;;;;7.07;5.00;;;18.00;1.00;;;;;;4989601;28;20203;-71
2023/07/27 08:29:06;;;;;;;6.03;4.67;;;21.20;1.00;;;;;;4990396;28;20654;-73
2023/07/27 08:31:31;;;;;;;7.10;5.23;;;17.90;1.00;;;;;;4989723;28;20187;-72
2023/07/27 08:33:57;;;;;;;9.37;5.43;;;17.90;1.00;;;;;;4987773;28;20310;-72
2023/07/27 08:36:22;;;;;;;7.27;5.17;;;17.90;1.00;;;;;;4988851;28;20199;-73
2023/07/27 08:38:48;;;;;;;6.60;5.63;;;17.90;1.00;;;;;;4988076;28;20183;-72
2023/07/27 08:41:13;;;;;;;8.10;5.43;;;18.00;1.00;;;;;;4989896;28;20333;-72
2023/07/27 08:43:39;;;;;;;8.10;5.70;;;18.00;1.00;;;;;;4986881;28;20597;-71
2023/07/27 08:46:05;;;;;;;7.70;5.47;;;18.10;1.00;;;;;;4990651;28;20550;-72
2023/07/27 08:48:31;;;;;;;8.90;5.17;;;18.10;1.00;;;;;;4989806;28;20187;-75
2023/07/27 08:50:57;;;;;;;8.03;5.60;;;18.10;1.00;;;;;;4989708;28;20183;-74
2023/07/27 08:53:23;;;;;;;8.90;5.57;;;18.00;1.00;;;;;;4987793;28;20199;-73
2023/07/27 08:55:48;;;;;;;7.60;5.50;;;17.60;1.00;;;;;;4986814;28;20964;-72
2023/07/27 08:58:14;;;;;;;12.50;5.63;;;17.60;1.00;;;;;;4990039;28;20186;-72
2023/07/27 09:00:40;;;;;;;8.47;6.30;;;17.30;1.00;;;;;;4988581;28;20246;-72
2023/07/27 09:03:07;;;;;;;8.27;5.83;;;17.10;1.00;;;;;;4989187;28;20175;-72
2023/07/27 09:05:44;;;;;;;8.70;5.90;;;17.10;1.00;;;;;;4989969;28;20221;-70
2023/07/27 09:08:12;;;;;;;8.13;5.90;;;17.00;1.00;;;;;;4984429;28;20464;-74
2023/07/27 09:10:39;;;;;;;7.70;5.60;;;17.00;1.00;;;;;;4989292;28;20512;-74
2023/07/27 09:13:05;;;;;;;10.93;5.10;;;17.00;1.00;;;;;;4988828;28;20462;-71
2023/07/27 09:15:34;;;;;;;6.27;4.80;;;17.10;1.00;;;;;;4988877;28;20438;-71
2023/07/27 09:18:01;;;;;;;6.60;5.00;;;17.00;1.00;;;;;;4987390;28;20552;-72
2023/07/27 09:20:29;;;;;;;7.70;4.90;;;17.00;1.00;;;;;;4989254;28;20545;-71
2023/07/27 09:22:56;;;;;;;7.77;4.70;;;16.90;1.00;;;;;;4986966;28;20802;-71
2023/07/27 09:25:22;;;;;;;6.17;4.60;;;16.80;1.00;;;;;;4991930;28;20457;-72
2023/07/27 09:27:53;;;;;;;5.93;4.07;;;16.80;1.00;;;;;;4988659;28;20516;-72
2023/07/27 09:30:18;;;;;;;6.70;4.60;;;16.80;1.00;;;;;;4988379;28;20441;-73
2023/07/27 09:32:45;;;;;;;7.63;4.87;;;16.80;1.00;;;;;;4989420;28;20446;-71
2023/07/27 09:35:15;;;;;;;6.97;5.27;;;16.90;1.00;;;;;;4990760;28;20237;-74
2023/07/27 09:37:47;;;;;;;8.27;4.33;;;17.10;1.00;;;;;;4991006;28;20809;-72
2023/07/27 09:40:15;;;;;;;7.23;5.07;;;17.20;1.00;;;;;;4990526;28;20462;-74
2023/07/27 09:42:42;;;;;;;9.17;4.73;;;17.40;1.00;;;;;;4985448;28;20438;-72
2023/07/27 09:45:08;;;;;;;13.13;5.07;;;17.60;1.00;;;;;;4989903;28;20426;-72
2023/07/27 09:47:34;;;;;;;8.67;4.93;;;17.80;1.00;;;;;;4990480;28;20991;-71
2023/07/27 09:50:01;;;;;;;6.83;5.23;;;18.00;1.00;;;;;;4990104;28;20441;-72
2023/07/27 09:52:28;;;;;;;7.23;5.60;;;18.10;1.00;;;;;;4988945;28;20992;-72
2023/07/27 09:54:55;;;;;;;6.03;5.23;;;18.20;1.00;;;;;;4988310;28;20518;-71
2023/07/27 09:57:21;;;;;;;8.70;6.70;;;18.20;1.00;;;;;;4989587;28;20816;-71
2023/07/27 09:59:48;;;;;;;10.17;5.90;;;18.40;1.00;;;;;;4988322;28;20458;-72
2023/07/27 10:02:13;;;;;;;9.80;5.70;;;18.50;1.00;;;;;;4990008;28;20175;-71
2023/07/27 10:04:41;;;;;;;7.20;5.40;;;18.50;1.00;;;;;;4990011;28;20436;-70
2023/07/27 10:07:07;;;;;;;6.37;4.83;;;18.70;1.00;;;;;;4981762;28;20215;-71
2023/07/27 10:09:32;;;;;;;8.80;5.63;;;18.60;1.00;;;;;;4990412;28;20461;-70
2023/07/27 10:12:04;;;;;;;7.90;5.30;;;18.60;1.00;;;;;;4988608;28;20167;-71
2023/07/27 10:14:30;;;;;;;6.93;5.17;;;18.70;1.00;;;;;;4987380;28;20182;-71
2023/07/27 10:17:07;;;;;;;6.17;4.83;;;18.70;1.00;;;;;;4986687;28;20453;-72
2023/07/27 10:19:43;;;;;;;6.50;4.80;;;18.70;1.00;;;;;;4989557;28;20687;-73
2023/07/27 10:22:15;;;;;;;6.03;4.70;;;18.60;1.00;;;;;;4990859;28;20908;-73
2023/07/27 10:24:48;;;;;;;10.00;4.20;;;18.60;1.00;;;;;;4989974;28;20781;-72
2023/07/27 10:27:13;;;;;;;6.50;4.30;;;18.70;1.00;;;;;;4985958;28;20434;-73
2023/07/27 10:29:41;;;;;;;6.23;4.40;;;18.70;1.00;;;;;;4990196;28;20778;-71
2023/07/27 10:32:10;;;;;;;6.50;4.30;;;18.80;1.00;;;;;;4989237;28;20267;-76
2023/07/27 10:34:38;;;;;;;7.93;4.10;;;18.90;1.00;;;;;;4989631;28;20477;-72
2023/07/27 10:37:05;;;;;;;9.17;4.57;;;19.00;1.00;;;;;;4988148;28;20454;-71
2023/07/27 10:39:42;;;;;;;10.17;4.67;;;19.00;1.00;;;;;;4988923;28;20488;-71
2023/07/27 10:42:14;;;;;;;10.90;3.93;;;19.20;1.00;;;;;;4985507;28;21022;-73
2023/07/27 10:44:51;;;;;;;6.17;4.60;;;19.20;1.00;;;;;;4985470;28;20508;-71
2023/07/27 10:47:26;;;;;;;7.40;4.93;;;19.30;1.00;;;;;;4988907;28;20449;-71
2023/07/27 10:49:56;;;;;;;10.03;4.80;;;19.40;1.00;;;;;;4987840;28;20429;-72
2023/07/27 10:52:27;;;;;;;9.50;4.40;;;19.40;1.00;;;;;;4987897;28;20515;-72
2023/07/27 10:54:58;;;;;;;7.33;4.53;;;19.30;1.00;;;;;;4988144;28;20979;-72
2023/07/27 10:57:25;;;;;;;6.63;4.93;;;19.20;1.00;;;;;;4983580;28;20462;-74
2023/07/27 10:59:51;;;;;;;7.10;5.03;;;18.80;1.00;;;;;;4987086;28;20548;-72
2023/07/27 11:02:20;;;;;;;7.80;4.80;;;18.60;1.00;;;;;;4986353;28;20995;-74
2023/07/27 11:04:48;;;;;;;7.93;5.13;;;18.50;1.00;;;;;;4991051;28;20951;-71
2023/07/27 11:07:27;;;;;;;7.90;5.00;;;18.50;1.00;;;;;;4987028;28;20469;-71
2023/07/27 11:09:52;;;;;;;8.83;5.23;;;18.50;1.00;;;;;;4989819;28;20824;-72
2023/07/27 11:12:18;;;;;;;7.20;5.30;;;18.40;1.00;;;;;;4991230;28;20430;-77
2023/07/27 11:14:43;;;;;;;12.07;5.17;;;18.30;1.00;;;;;;4993801;28;20266;-71
2023/07/27 11:17:11;;;;;;;8.13;5.70;;;18.20;1.00;;;;;;4989852;28;20221;-73
2023/07/27 11:19:37;;;;;;;6.87;5.60;;;18.20;1.00;;;;;;4995060;28;20549;-72
2023/07/27 11:22:02;;;;;;;6.23;5.00;;;18.20;1.00;;;;;;4990996;28;20449;-73
2023/07/27 11:24:29;;;;;;;8.77;5.87;;;18.20;1.00;;;;;;4989868;28;20188;-74
2023/07/27 11:26:55;;;;;;;8.87;5.70;;;18.20;1.00;;;;;;4987016;28;20191;-72
2023/07/27 11:29:22;;;;;;;9.57;5.60;;;18.20;1.00;;;;;;4982078;28;20440;-72
2023/07/27 11:32:00;;;;;;;8.27;5.83;;;18.20;1.00;;;;;;4989624;28;20189;-72
2023/07/27 11:34:28;;;;;;;11.50;6.50;;;18.30;1.00;;;;;;4986010;28;20814;-72
2023/07/27 11:36:56;;;;;;;7.53;6.00;;;18.30;1.00;;;;;;4989718;28;20457;-72
2023/07/27 11:39:22;;;;;;;9.83;6.03;;;18.40;1.00;;;;;;4991021;28;20431;-73
2023/07/27 11:41:51;;;;;;;9.10;6.10;;;18.40;1.00;;;;;;4990248;28;20462;-72
2023/07/27 11:44:20;;;;;;;7.80;6.17;;;18.40;1.00;;;;;;4990862;28;20183;-72
2023/07/27 11:46:49;;;;;;;8.27;6.00;;;18.30;1.00;;;;;;4989860;28;20527;-72
2023/07/27 11:49:16;;;;;;;8.80;5.93;;;18.30;1.00;;;;;;4988534;28;20434;-73
2023/07/27 11:51:43;;;;;;;12.00;5.90;;;18.20;1.00;;;;;;4990921;28;20430;-72
2023/07/27 11:54:09;;;;;;;7.80;5.23;;;18.30;1.00;;;;;;4990670;28;20430;-72
2023/07/27 11:56:36;;;;;;;9.17;6.53;;;18.30;1.00;;;;;;4990888;28;20454;-73
2023/07/27 11:59:06;;;;;;;8.07;6.60;;;18.20;1.00;;;;;;4987342;28;20226;-72
2023/07/27 12:01:36;;;;;;;9.93;6.30;;;18.20;1.00;;;;;;4989975;28;20485;-72
2023/07/27 12:04:04;;;;;;;13.40;6.60;;;18.20;1.00;;;;;;4986489;28;20516;-72
2023/07/27 12:06:30;;;;;;;12.33;6.80;;;18.20;1.00;;;;;;4988948;28;20600;-72
2023/07/27 12:08:56;;;;;;;10.50;6.83;;;18.20;1.00;;;;;;4989146;28;20540;-72
2023/07/27 12:11:26;;;;;;;10.67;6.67;;;18.10;1.00;;;;;;4988918;28;20513;-72
2023/07/27 12:13:52;;;;;;;9.23;6.77;;;18.20;1.00;;;;;;4990382;28;20535;-72
2023/07/27 12:16:17;;;;;;;11.43;6.93;;;18.10;1.00;;;;;;4989046;28;20541;-72
2023/07/27 12:18:45;;;;;;;8.07;6.60;;;18.10;1.00;;;;;;4990832;28;20553;-72
2023/07/27 12:21:11;;;;;;;9.47;6.63;;;18.10;1.00;;;;;;4988069;28;20209;-72
2023/07/27 12:23:37;;;;;;;13.70;6.63;;;18.20;1.00;;;;;;4989621;28;21124;-72
2023/07/27 12:26:03;;;;;;;10.83;6.33;;;18.30;1.00;;;;;;4994722;28;20442;-71
2023/07/27 12:28:31;;;;;;;8.97;5.37;;;18.30;1.00;;;;;;4985662;28;20456;-72
2023/07/27 12:30:56;;;;;;;7.43;5.87;;;18.30;1.00;;;;;;4988089;28;20187;-72
2023/07/27 12:33:25;;;;;;;7.60;5.73;;;18.40;1.00;;;;;;4989851;28;20925;-73
2023/07/27 12:35:52;;;;;;;10.23;5.37;;;18.50;1.00;;;;;;4988115;28;20553;-71
2023/07/27 12:38:18;;;;;;;9.53;5.70;;;18.60;1.00;;;;;;4990762;28;20431;-71
2023/07/27 12:40:44;;;;;;;10.40;5.97;;;18.60;1.00;;;;;;4988330;28;20455;-71
2023/07/27 12:43:09;;;;;;;9.03;5.57;;;18.70;1.00;;;;;;4989229;28;20175;-72
2023/07/27 12:45:36;;;;;;;7.03;5.20;;;18.90;1.00;;;;;;4987685;28;20186;-72
2023/07/27 12:48:03;;;;;;;8.80;5.93;;;19.00;1.00;;;;;;4989017;28;20195;-71
2023/07/27 12:50:28;;;;;;;7.83;5.00;;;19.20;1.00;;;;;;4990777;28;20992;-71
2023/07/27 12:52:54;;;;;;;8.93;5.67;;;19.40;1.00;;;;;;4989235;28;20550;-71